createdAt,value
2023-09-29T00:00:44.121Z,100.00
2023-09-29T00:03:10.936Z,100.00
2023-09-29T00:05:37.546Z,100.00
2023-09-29T00:08:04.326Z,100.00
2023-09-29T00:10:31.151Z,100.00
2023-09-29T00:12:57.529Z,100.00
2023-09-29T00:15:23.951Z,100.00
2023-09-29T00:17:50.688Z,100.00
2023-09-29T00:20:19.974Z,100.00
2023-09-29T00:22:46.924Z,100.00
2023-09-29T00:25:13.332Z,100.00
2023-09-29T00:27:39.792Z,100.00
2023-09-29T00:30:06.885Z,100.00
2023-09-29T00:32:33.354Z,100.00
2023-09-29T00:34:59.871Z,100.00
2023-09-29T00:37:26.777Z,100.00
2023-09-29T00:39:57.015Z,100.00
2023-09-29T00:42:23.455Z,100.00
2023-09-29T00:44:49.931Z,100.00
2023-09-29T00:47:16.908Z,100.00
2023-09-29T00:49:43.628Z,100.00
2023-09-29T00:52:10.609Z,100.00
2023-09-29T00:54:37.487Z,100.00
2023-09-29T00:57:06.900Z,100.00
2023-09-29T00:59:33.524Z,100.00
2023-09-29T01:02:03.239Z,100.00
2023-09-29T01:04:30.902Z,100.00
2023-09-29T01:06:58.018Z,100.00
2023-09-29T01:09:24.462Z,100.00
2023-09-29T01:11:50.919Z,100.00
2023-09-29T01:14:17.327Z,100.00
2023-09-29T01:16:43.799Z,100.00
2023-09-29T01:19:14.596Z,100.00
2023-09-29T01:21:41.243Z,100.00
2023-09-29T01:24:08.461Z,100.00
2023-09-29T01:26:34.922Z,100.00
2023-09-29T01:29:01.295Z,100.00
2023-09-29T01:31:27.903Z,100.00
2023-09-29T01:33:54.459Z,100.00
2023-09-29T01:36:20.977Z,100.00
2023-09-29T01:38:47.496Z,100.00
2023-09-29T01:41:16.989Z,100.00
2023-09-29T01:43:43.390Z,100.00
2023-09-29T01:46:10.614Z,100.00
2023-09-29T01:48:37.558Z,100.00
2023-09-29T01:51:04.080Z,100.00
2023-09-29T01:53:32.155Z,100.00
2023-09-29T01:55:58.605Z,100.00
2023-09-29T01:58:25.410Z,100.00
2023-09-29T02:00:51.789Z,100.00
2023-09-29T02:03:18.320Z,100.00
2023-09-29T02:05:45.080Z,100.00
2023-09-29T02:08:11.474Z,100.00
2023-09-29T02:10:37.968Z,100.00
2023-09-29T02:13:09.028Z,100.00
2023-09-29T02:15:36.201Z,100.00
2023-09-29T02:18:03.234Z,100.00
2023-09-29T02:20:30.237Z,100.00
2023-09-29T02:23:01.656Z,100.00
2023-09-29T02:25:29.362Z,100.00
2023-09-29T02:27:57.745Z,100.00
2023-09-29T02:30:25.724Z,100.00
2023-09-29T02:32:55.379Z,100.00
2023-09-29T02:35:22.154Z,100.00
2023-09-29T02:37:49.158Z,100.00
2023-09-29T02:40:19.240Z,100.00
2023-09-29T02:42:45.830Z,100.00
2023-09-29T02:45:12.610Z,100.00
2023-09-29T02:47:40.813Z,100.00
2023-09-29T02:50:10.146Z,100.00
2023-09-29T02:52:39.072Z,100.00
2023-09-29T02:55:06.774Z,100.00
2023-09-29T02:57:33.162Z,100.00
2023-09-29T02:59:59.632Z,100.00
2023-09-29T03:02:26.322Z,100.00
2023-09-29T03:04:52.716Z,100.00
2023-09-29T03:07:19.091Z,100.00
2023-09-29T03:09:46.366Z,100.00
2023-09-29T03:12:12.916Z,100.00
2023-09-29T03:14:39.371Z,100.00
2023-09-29T03:17:05.753Z,100.00
2023-09-29T03:19:32.221Z,100.00
2023-09-29T03:22:01.811Z,100.00
2023-09-29T03:24:30.532Z,100.00
2023-09-29T03:26:57.674Z,100.00
2023-09-29T03:29:24.723Z,100.00
2023-09-29T03:31:52.157Z,100.00
2023-09-29T03:34:20.248Z,100.00
2023-09-29T03:36:46.785Z,100.00
2023-09-29T03:39:13.212Z,100.00
2023-09-29T03:41:39.651Z,100.00
2023-09-29T03:44:06.122Z,100.00
2023-09-29T03:46:32.534Z,100.00
2023-09-29T03:48:58.944Z,100.00
2023-09-29T03:51:25.537Z,100.00
2023-09-29T03:53:54.000Z,100.00
2023-09-29T03:56:24.098Z,100.00
2023-09-29T03:58:51.324Z,100.00
2023-09-29T04:01:18.227Z,100.00
2023-09-29T04:03:44.721Z,100.00
2023-09-29T04:06:11.369Z,100.00
2023-09-29T04:08:38.200Z,100.00
2023-09-29T04:11:05.140Z,100.00
2023-09-29T04:13:31.959Z,100.00
2023-09-29T04:16:00.160Z,100.00
2023-09-29T04:18:26.586Z,100.00
2023-09-29T04:20:53.261Z,100.00
2023-09-29T04:23:19.776Z,100.00
2023-09-29T04:25:47.410Z,100.00
2023-09-29T04:28:13.956Z,100.00
2023-09-29T04:30:40.498Z,100.00
2023-09-29T04:33:06.936Z,100.00
2023-09-29T04:35:36.082Z,100.00
2023-09-29T04:38:03.145Z,100.00
2023-09-29T04:40:29.805Z,100.00
2023-09-29T04:42:56.241Z,100.00
2023-09-29T04:45:22.710Z,100.00
2023-09-29T04:47:49.188Z,100.00
2023-09-29T04:50:15.656Z,100.00
2023-09-29T04:52:42.196Z,100.00
2023-09-29T04:55:09.359Z,100.00
2023-09-29T04:57:35.848Z,100.00
2023-09-29T05:00:03.118Z,100.00
2023-09-29T05:02:31.185Z,100.00
2023-09-29T05:04:58.045Z,100.00
2023-09-29T05:07:24.543Z,100.00
2023-09-29T05:09:51.012Z,100.00
2023-09-29T05:12:17.396Z,100.00
2023-09-29T05:14:43.794Z,100.00
2023-09-29T05:17:10.308Z,100.00
2023-09-29T05:19:36.717Z,100.00
2023-09-29T05:22:03.355Z,100.00
2023-09-29T05:24:29.736Z,100.00
2023-09-29T05:26:56.206Z,100.00
2023-09-29T05:29:22.632Z,100.00
2023-09-29T05:31:49.768Z,100.00
2023-09-29T05:34:16.152Z,100.00
2023-09-29T05:36:42.550Z,100.00
2023-09-29T05:39:09.031Z,100.00
2023-09-29T05:41:35.595Z,100.00
2023-09-29T05:44:02.202Z,100.00
2023-09-29T05:46:28.716Z,100.00
2023-09-29T05:48:55.739Z,100.00
2023-09-29T05:51:22.383Z,100.00
2023-09-29T05:53:48.884Z,100.00
2023-09-29T05:56:16.791Z,100.00
2023-09-29T05:58:43.314Z,100.00
2023-09-29T06:01:10.973Z,100.00
2023-09-29T06:03:39.006Z,100.00
2023-09-29T06:06:06.149Z,100.00
2023-09-29T06:08:38.920Z,100.00
2023-09-29T06:11:14.565Z,100.00
2023-09-29T06:13:41.714Z,100.00
2023-09-29T06:16:08.246Z,100.00
2023-09-29T06:18:35.610Z,100.00
2023-09-29T06:21:02.194Z,100.00
2023-09-29T06:23:28.682Z,100.00
2023-09-29T06:25:59.324Z,100.00
2023-09-29T06:28:26.012Z,100.00
2023-09-29T06:30:58.858Z,100.00
2023-09-29T06:33:26.653Z,100.00
2023-09-29T06:35:53.790Z,100.00
2023-09-29T06:38:20.587Z,100.00
2023-09-29T06:40:47.008Z,100.00
2023-09-29T06:43:13.474Z,100.00
2023-09-29T06:45:59.768Z,100.00
2023-09-29T06:48:27.471Z,100.00
2023-09-29T06:50:54.039Z,100.00
2023-09-29T06:53:20.772Z,100.00
2023-09-29T06:55:47.172Z,100.00
2023-09-29T06:58:13.596Z,100.00
2023-09-29T07:00:40.644Z,100.00
2023-09-29T07:03:13.619Z,100.00
2023-09-29T07:05:40.218Z,100.00
2023-09-29T07:08:07.253Z,100.00
2023-09-29T07:10:33.597Z,100.00
2023-09-29T07:13:00.099Z,100.00
2023-09-29T07:15:26.541Z,100.00
2023-09-29T07:17:53.054Z,100.00
2023-09-29T07:20:19.550Z,100.00
2023-09-29T07:22:46.102Z,100.00
2023-09-29T07:25:14.586Z,100.00
2023-09-29T07:27:40.959Z,100.00
2023-09-29T07:30:09.574Z,100.00
2023-09-29T07:32:36.232Z,100.00
2023-09-29T07:35:04.119Z,100.00
2023-09-29T07:37:30.496Z,100.00
2023-09-29T07:39:59.111Z,100.00
2023-09-29T07:42:25.589Z,100.00
2023-09-29T07:44:52.958Z,100.00
2023-09-29T07:47:19.737Z,100.00
2023-09-29T07:49:46.292Z,100.00
2023-09-29T07:52:13.065Z,100.00
2023-09-29T07:54:39.543Z,100.00
2023-09-29T07:57:06.073Z,100.00
2023-09-29T07:59:32.550Z,100.00
2023-09-29T08:01:59.676Z,100.00
2023-09-29T08:04:27.230Z,100.00
2023-09-29T08:06:53.933Z,100.00
2023-09-29T08:09:20.470Z,100.00
2023-09-29T08:11:46.972Z,100.00
2023-09-29T08:14:14.096Z,100.00
2023-09-29T08:16:40.605Z,100.00
2023-09-29T08:19:07.052Z,100.00
2023-09-29T08:21:34.200Z,100.00
2023-09-29T08:24:04.371Z,100.00
2023-09-29T08:26:32.178Z,100.00
2023-09-29T08:29:00.954Z,100.00
2023-09-29T08:31:27.543Z,100.00
2023-09-29T08:33:54.065Z,100.00
2023-09-29T08:36:20.806Z,100.00
2023-09-29T08:38:47.299Z,100.00
2023-09-29T08:41:15.926Z,100.00
2023-09-29T08:43:46.378Z,100.00
2023-09-29T08:46:20.050Z,100.00
2023-09-29T08:48:47.733Z,100.00
2023-09-29T08:51:16.765Z,100.00
2023-09-29T08:53:44.451Z,100.00
2023-09-29T08:56:16.653Z,100.00
2023-09-29T08:58:43.600Z,100.00
2023-09-29T09:01:10.224Z,100.00
2023-09-29T09:03:36.659Z,100.00
2023-09-29T09:06:15.930Z,100.00
2023-09-29T09:08:42.539Z,100.00
2023-09-29T09:11:08.933Z,100.00
2023-09-29T09:13:35.346Z,100.00
2023-09-29T09:16:01.778Z,100.00
2023-09-29T09:18:28.753Z,99.71
2023-09-29T09:20:55.464Z,97.52
2023-09-29T09:23:22.244Z,95.63
2023-09-29T09:25:48.700Z,93.43
2023-09-29T09:28:19.780Z,95.70
2023-09-29T09:30:47.453Z,94.16
2023-09-29T09:33:19.377Z,98.48
2023-09-29T09:35:45.979Z,94.46
2023-09-29T09:38:12.559Z,95.99
2023-09-29T09:40:39.894Z,93.77
2023-09-29T09:43:11.279Z,95.07
2023-09-29T09:45:40.734Z,95.87
2023-09-29T09:48:12.142Z,94.61
2023-09-29T09:50:43.145Z,93.59
2023-09-29T09:53:12.365Z,90.99
2023-09-29T09:55:42.505Z,94.35
2023-09-29T09:58:17.887Z,93.52
2023-09-29T10:00:46.675Z,96.03
2023-09-29T10:03:17.373Z,93.89
2023-09-29T10:05:47.940Z,91.86
2023-09-29T10:08:33.458Z,90.47
2023-09-29T10:11:14.087Z,90.20
2023-09-29T10:13:43.505Z,88.58
2023-09-29T10:16:21.044Z,89.50
2023-09-29T10:19:06.653Z,90.54
2023-09-29T10:21:51.488Z,89.88
2023-09-29T10:24:26.549Z,88.35
2023-09-29T10:26:53.103Z,88.34
2023-09-29T10:29:20.501Z,89.14
2023-09-29T10:31:47.152Z,89.21
2023-09-29T10:34:22.954Z,89.56
2023-09-29T10:36:56.808Z,89.99
2023-09-29T10:39:28.022Z,90.86
2023-09-29T10:42:14.886Z,89.61
2023-09-29T10:44:58.558Z,89.61
2023-09-29T10:47:37.247Z,85.38
2023-09-29T10:50:04.711Z,85.11
2023-09-29T10:52:31.463Z,81.90
2023-09-29T10:54:59.959Z,81.36
2023-09-29T10:57:27.881Z,80.53
2023-09-29T11:00:00.689Z,81.18
2023-09-29T11:02:32.073Z,82.73
2023-09-29T11:05:01.391Z,81.58
2023-09-29T11:07:30.743Z,81.86
2023-09-29T11:10:00.479Z,80.11
2023-09-29T11:12:29.154Z,79.85
2023-09-29T11:15:09.250Z,80.84
2023-09-29T11:17:49.448Z,80.13
2023-09-29T11:20:17.799Z,79.79
2023-09-29T11:22:46.679Z,78.68
2023-09-29T11:25:20.938Z,78.95
2023-09-29T11:27:53.688Z,74.57
2023-09-29T11:30:26.161Z,73.71
2023-09-29T11:32:53.868Z,72.35
2023-09-29T11:35:22.420Z,72.93
2023-09-29T11:37:48.867Z,73.51
2023-09-29T11:40:17.487Z,72.67
2023-09-29T11:42:46.301Z,73.97
2023-09-29T11:45:12.995Z,74.79
2023-09-29T11:47:43.063Z,77.57
2023-09-29T11:50:10.369Z,77.69
2023-09-29T11:52:40.590Z,78.24
2023-09-29T11:55:12.518Z,73.91
2023-09-29T11:57:41.777Z,73.81
2023-09-29T12:00:12.303Z,73.69
2023-09-29T12:02:39.771Z,74.07
2023-09-29T12:05:07.276Z,71.99
2023-09-29T12:07:34.314Z,71.07
2023-09-29T12:10:00.817Z,72.48
2023-09-29T12:12:28.010Z,73.02
2023-09-29T12:14:54.436Z,74.62
2023-09-29T12:17:21.304Z,73.04
2023-09-29T12:19:48.139Z,73.14
2023-09-29T12:22:15.139Z,73.23
2023-09-29T12:24:41.610Z,74.11
2023-09-29T12:27:09.337Z,73.86
2023-09-29T12:29:36.211Z,73.86
2023-09-29T12:32:03.164Z,74.48
2023-09-29T12:34:33.767Z,73.86
2023-09-29T12:37:00.799Z,74.13
2023-09-29T12:39:27.421Z,73.82
2023-09-29T12:41:54.327Z,74.41
2023-09-29T12:44:20.740Z,75.83
2023-09-29T12:46:47.120Z,76.69
2023-09-29T12:49:13.509Z,77.90
2023-09-29T12:51:53.312Z,79.38
2023-09-29T12:54:26.450Z,80.16
2023-09-29T12:57:01.442Z,81.22
2023-09-29T12:59:30.727Z,83.05
2023-09-29T13:01:57.499Z,84.19
2023-09-29T13:04:27.507Z,85.61
2023-09-29T13:06:54.022Z,87.13
2023-09-29T13:09:21.993Z,87.00
2023-09-29T13:11:51.783Z,86.56
2023-09-29T13:14:18.495Z,84.80
2023-09-29T13:16:45.093Z,82.49
2023-09-29T13:19:11.594Z,81.74
2023-09-29T13:21:39.187Z,81.48
2023-09-29T13:24:05.752Z,80.70
2023-09-29T13:26:32.223Z,79.12
2023-09-29T13:28:58.722Z,78.85
2023-09-29T13:31:25.181Z,79.35
2023-09-29T13:33:54.611Z,78.63
2023-09-29T13:36:21.379Z,78.92
2023-09-29T13:38:49.229Z,78.07
2023-09-29T13:41:15.622Z,78.37
2023-09-29T13:43:43.328Z,80.33
2023-09-29T13:46:10.451Z,80.93
2023-09-29T13:48:37.428Z,81.70
2023-09-29T13:51:07.378Z,80.94
2023-09-29T13:53:35.146Z,79.79
2023-09-29T13:56:06.104Z,75.07
2023-09-29T13:58:32.526Z,76.97
2023-09-29T14:00:59.021Z,77.30
2023-09-29T14:03:26.089Z,76.52
2023-09-29T14:05:52.876Z,78.38
2023-09-29T14:08:20.238Z,78.33
2023-09-29T14:10:47.755Z,75.75
2023-09-29T14:13:14.380Z,76.31
2023-09-29T14:15:40.808Z,75.39
2023-09-29T14:18:07.336Z,74.41
2023-09-29T14:20:37.264Z,71.05
2023-09-29T14:23:04.614Z,70.37
2023-09-29T14:25:31.247Z,70.49
2023-09-29T14:27:57.672Z,71.10
2023-09-29T14:30:25.478Z,69.93
2023-09-29T14:32:54.062Z,71.25
2023-09-29T14:35:22.581Z,72.79
2023-09-29T14:37:49.177Z,72.60
2023-09-29T14:40:15.655Z,71.65
2023-09-29T14:42:42.038Z,70.19
2023-09-29T14:45:12.161Z,69.86
2023-09-29T14:47:42.473Z,70.14
2023-09-29T14:50:09.295Z,70.03
2023-09-29T14:52:35.759Z,70.79
2023-09-29T14:55:07.138Z,71.62
2023-09-29T14:57:33.960Z,71.73
2023-09-29T15:00:01.627Z,72.09
2023-09-29T15:02:28.124Z,71.58
2023-09-29T15:04:57.128Z,72.06
2023-09-29T15:07:23.891Z,71.40
2023-09-29T15:09:50.483Z,70.31
2023-09-29T15:12:17.671Z,71.43
2023-09-29T15:14:44.710Z,71.37
2023-09-29T15:17:11.467Z,71.50
2023-09-29T15:19:43.593Z,72.40
2023-09-29T15:22:10.926Z,72.49
2023-09-29T15:24:39.163Z,72.10
2023-09-29T15:27:07.332Z,71.62
2023-09-29T15:29:33.802Z,73.05
2023-09-29T15:32:00.436Z,72.87
2023-09-29T15:34:26.960Z,73.01
2023-09-29T15:36:53.569Z,73.43
2023-09-29T15:39:20.285Z,73.26
2023-09-29T15:41:46.804Z,73.31
2023-09-29T15:44:13.167Z,74.01
2023-09-29T15:46:39.573Z,74.73
2023-09-29T15:49:06.357Z,74.81
2023-09-29T15:51:32.763Z,74.91
2023-09-29T15:54:00.111Z,74.72
2023-09-29T15:56:26.805Z,74.76
2023-09-29T15:58:53.308Z,74.50
2023-09-29T16:01:19.979Z,75.12
2023-09-29T16:03:46.660Z,74.59
2023-09-29T16:06:13.240Z,74.78
2023-09-29T16:08:39.722Z,74.69
2023-09-29T16:11:06.104Z,74.91
2023-09-29T16:13:34.846Z,74.13
2023-09-29T16:16:05.370Z,73.36
2023-09-29T16:18:32.106Z,72.69
2023-09-29T16:20:58.628Z,73.55
2023-09-29T16:23:25.566Z,73.20
2023-09-29T16:25:53.388Z,73.67
2023-09-29T16:28:20.788Z,72.97
2023-09-29T16:30:47.213Z,73.04
2023-09-29T16:33:13.789Z,73.56
2023-09-29T16:35:40.651Z,74.23
2023-09-29T16:38:10.078Z,75.76
2023-09-29T16:40:36.508Z,75.72
2023-09-29T16:43:02.966Z,75.95
2023-09-29T16:45:30.368Z,76.65
2023-09-29T16:47:56.967Z,77.34
2023-09-29T16:50:23.787Z,78.06
2023-09-29T16:52:50.268Z,78.20
2023-09-29T16:55:16.776Z,78.51
2023-09-29T16:57:43.260Z,78.91
2023-09-29T17:00:10.267Z,79.38
2023-09-29T17:02:36.718Z,80.28
2023-09-29T17:05:03.930Z,80.82
2023-09-29T17:07:30.396Z,81.53
2023-09-29T17:09:56.885Z,81.65
2023-09-29T17:12:23.484Z,82.45
2023-09-29T17:14:50.105Z,82.45
2023-09-29T17:17:16.507Z,82.52
2023-09-29T17:19:44.945Z,82.58
2023-09-29T17:22:11.403Z,83.25
2023-09-29T17:24:37.877Z,83.57
2023-09-29T17:27:04.437Z,84.16
2023-09-29T17:29:30.952Z,84.65
2023-09-29T17:31:57.491Z,85.12
2023-09-29T17:34:24.435Z,85.68
2023-09-29T17:36:50.880Z,86.29
2023-09-29T17:39:18.041Z,85.85
2023-09-29T17:41:44.452Z,86.83
2023-09-29T17:44:14.835Z,87.21
2023-09-29T17:46:41.265Z,87.97
2023-09-29T17:49:08.023Z,88.40
2023-09-29T17:51:34.654Z,88.91
2023-09-29T17:54:01.230Z,89.73
2023-09-29T17:56:27.982Z,90.41
2023-09-29T17:58:54.361Z,90.92
2023-09-29T18:01:20.844Z,90.96
2023-09-29T18:03:47.685Z,91.65
2023-09-29T18:06:14.495Z,92.55
2023-09-29T18:08:41.787Z,93.27
2023-09-29T18:11:08.664Z,94.29
2023-09-29T18:13:35.236Z,94.97
2023-09-29T18:16:01.752Z,95.05
2023-09-29T18:18:28.463Z,96.37
2023-09-29T18:21:00.864Z,96.52
2023-09-29T18:23:29.446Z,97.05
2023-09-29T18:25:55.917Z,97.59
2023-09-29T18:28:22.324Z,98.42
2023-09-29T18:30:48.810Z,98.51
2023-09-29T18:33:15.270Z,99.25
2023-09-29T18:35:41.839Z,98.72
2023-09-29T18:38:08.475Z,99.56
2023-09-29T18:40:34.903Z,99.83
2023-09-29T18:43:01.810Z,100.00
2023-09-29T18:45:30.675Z,100.00
2023-09-29T18:47:57.204Z,100.00
2023-09-29T18:50:24.080Z,99.68
2023-09-29T18:52:50.447Z,99.23
2023-09-29T18:55:16.969Z,99.36
2023-09-29T18:57:43.526Z,99.68
2023-09-29T19:00:12.206Z,100.00
2023-09-29T19:02:38.731Z,99.88
2023-09-29T19:05:06.077Z,100.00
2023-09-29T19:07:32.628Z,100.00
2023-09-29T19:09:59.253Z,100.00
2023-09-29T19:12:25.780Z,100.00
2023-09-29T19:14:52.385Z,100.00
2023-09-29T19:17:19.072Z,100.00
2023-09-29T19:19:45.740Z,100.00
2023-09-29T19:22:12.368Z,100.00
2023-09-29T19:24:38.984Z,100.00
2023-09-29T19:27:05.704Z,100.00
2023-09-29T19:29:32.499Z,100.00
2023-09-29T19:31:58.959Z,100.00
2023-09-29T19:34:25.468Z,100.00
2023-09-29T19:36:51.872Z,100.00
2023-09-29T19:39:18.383Z,100.00
2023-09-29T19:41:44.936Z,100.00
2023-09-29T19:44:11.789Z,100.00
2023-09-29T19:46:38.843Z,100.00
2023-09-29T19:49:05.662Z,100.00
2023-09-29T19:51:32.389Z,100.00
2023-09-29T19:53:59.703Z,100.00
2023-09-29T19:56:33.896Z,100.00
2023-09-29T19:59:00.850Z,100.00
2023-09-29T20:01:27.626Z,100.00
2023-09-29T20:03:54.446Z,100.00
2023-09-29T20:06:21.187Z,100.00
2023-09-29T20:08:50.857Z,100.00
2023-09-29T20:11:17.860Z,100.00
2023-09-29T20:13:44.455Z,100.00
2023-09-29T20:16:11.033Z,100.00
2023-09-29T20:18:37.695Z,100.00
2023-09-29T20:21:04.336Z,100.00
2023-09-29T20:23:30.826Z,100.00
2023-09-29T20:25:58.993Z,100.00
2023-09-29T20:28:26.454Z,100.00
2023-09-29T20:30:53.095Z,100.00
2023-09-29T20:33:19.418Z,100.00
2023-09-29T20:35:45.873Z,100.00
2023-09-29T20:38:12.252Z,100.00
2023-09-29T20:40:40.402Z,100.00
2023-09-29T20:43:07.054Z,100.00
2023-09-29T20:45:33.518Z,100.00
2023-09-29T20:48:00.212Z,100.00
2023-09-29T20:50:26.865Z,100.00
2023-09-29T20:52:53.270Z,100.00
2023-09-29T20:55:19.807Z,100.00
2023-09-29T20:57:46.178Z,100.00
2023-09-29T21:00:13.350Z,100.00
2023-09-29T21:02:41.329Z,100.00
2023-09-29T21:05:08.117Z,100.00
2023-09-29T21:07:34.562Z,100.00
2023-09-29T21:10:01.055Z,100.00
2023-09-29T21:12:27.498Z,100.00
2023-09-29T21:14:53.948Z,100.00
2023-09-29T21:17:20.604Z,100.00
2023-09-29T21:19:47.063Z,100.00
2023-09-29T21:22:15.246Z,100.00
2023-09-29T21:24:41.805Z,100.00
2023-09-29T21:27:08.401Z,100.00
2023-09-29T21:29:34.872Z,100.00
2023-09-29T21:32:01.257Z,100.00
2023-09-29T21:34:27.629Z,100.00
2023-09-29T21:36:54.368Z,100.00
2023-09-29T21:39:20.805Z,100.00
2023-09-29T21:41:47.582Z,100.00
2023-09-29T21:44:14.984Z,100.00
2023-09-29T21:46:41.975Z,100.00
2023-09-29T21:49:09.269Z,100.00
2023-09-29T21:51:36.878Z,100.00
2023-09-29T21:54:03.882Z,100.00
2023-09-29T21:56:30.487Z,100.00
2023-09-29T21:59:00.036Z,100.00
2023-09-29T22:01:27.962Z,100.00
2023-09-29T22:03:54.884Z,100.00
2023-09-29T22:06:21.497Z,100.00
2023-09-29T22:08:48.477Z,100.00
2023-09-29T22:11:15.440Z,100.00
2023-09-29T22:13:42.456Z,100.00
2023-09-29T22:16:09.560Z,100.00
2023-09-29T22:18:36.140Z,100.00
2023-09-29T22:21:02.714Z,100.00
2023-09-29T22:23:30.034Z,100.00
2023-09-29T22:25:56.585Z,100.00
2023-09-29T22:28:22.976Z,100.00
2023-09-29T22:30:49.336Z,100.00
2023-09-29T22:33:16.797Z,100.00
2023-09-29T22:35:43.352Z,100.00
2023-09-29T22:38:10.724Z,100.00
2023-09-29T22:40:37.146Z,100.00
2023-09-29T22:43:03.933Z,100.00
2023-09-29T22:45:30.505Z,100.00
2023-09-29T22:47:57.172Z,100.00
2023-09-29T22:50:23.668Z,100.00
2023-09-29T22:52:50.106Z,100.00
2023-09-29T22:55:16.667Z,100.00
2023-09-29T22:57:43.778Z,100.00
2023-09-29T23:00:13.665Z,100.00
2023-09-29T23:02:41.564Z,100.00
2023-09-29T23:05:08.473Z,100.00
2023-09-29T23:07:35.566Z,100.00
2023-09-29T23:10:03.627Z,100.00
2023-09-29T23:12:30.482Z,100.00
2023-09-29T23:14:57.308Z,100.00
2023-09-29T23:17:23.912Z,100.00
2023-09-29T23:19:50.386Z,100.00
2023-09-29T23:22:17.069Z,100.00
2023-09-29T23:24:43.594Z,100.00
2023-09-29T23:27:10.050Z,100.00
2023-09-29T23:29:38.975Z,100.00
2023-09-29T23:32:05.726Z,100.00
2023-09-29T23:34:32.201Z,100.00
2023-09-29T23:36:58.581Z,100.00
2023-09-29T23:39:25.081Z,100.00
2023-09-29T23:41:51.522Z,100.00
2023-09-29T23:44:18.349Z,100.00
2023-09-29T23:46:44.810Z,100.00
2023-09-29T23:49:11.799Z,100.00
2023-09-29T23:51:38.403Z,100.00
2023-09-29T23:54:05.110Z,100.00
2023-09-29T23:56:31.614Z,100.00
2023-09-29T23:58:59.785Z,100.00
